sensor_id;sensor_type;location;lat;lon;timestamp;P1;durP1;ratioP1;P2;durP2;ratioP2
10509;SDS011;5303;53.266;10.410;2022-07-09T00:00:47;11.27;;;4.13;;
10509;SDS011;5303;53.266;10.410;2022-07-09T00:03:12;8.63;;;3.90;;
10509;SDS011;5303;53.266;10.410;2022-07-09T00:05:38;11.53;;;4.77;;
10509;SDS011;5303;53.266;10.410;2022-07-09T00:08:03;14.53;;;4.27;;
10509;SDS011;5303;53.266;10.410;2022-07-09T00:10:29;11.10;;;4.53;;
10509;SDS011;5303;53.266;10.410;2022-07-09T00:12:55;9.40;;;4.00;;
10509;SDS011;5303;53.266;10.410;2022-07-09T00:15:20;10.13;;;4.60;;
10509;SDS011;5303;53.266;10.410;2022-07-09T00:17:45;12.97;;;4.10;;
10509;SDS011;5303;53.266;10.410;2022-07-09T00:20:11;7.17;;;3.70;;
10509;SDS011;5303;53.266;10.410;2022-07-09T00:22:36;8.87;;;3.97;;
10509;SDS011;5303;53.266;10.410;2022-07-09T00:25:02;10.50;;;3.83;;
10509;SDS011;5303;53.266;10.410;2022-07-09T00:27:27;11.13;;;4.17;;
10509;SDS011;5303;53.266;10.410;2022-07-09T00:29:53;11.80;;;4.07;;
10509;SDS011;5303;53.266;10.410;2022-07-09T00:32:18;10.50;;;4.10;;
10509;SDS011;5303;53.266;10.410;2022-07-09T00:34:44;9.40;;;4.00;;
10509;SDS011;5303;53.266;10.410;2022-07-09T00:37:09;9.73;;;4.40;;
10509;SDS011;5303;53.266;10.410;2022-07-09T00:39:35;8.30;;;3.63;;
10509;SDS011;5303;53.266;10.410;2022-07-09T00:42:04;10.73;;;4.20;;
10509;SDS011;5303;53.266;10.410;2022-07-09T00:44:30;6.87;;;3.67;;
10509;SDS011;5303;53.266;10.410;2022-07-09T00:46:55;8.83;;;3.90;;
10509;SDS011;5303;53.266;10.410;2022-07-09T00:49:20;9.87;;;4.10;;
10509;SDS011;5303;53.266;10.410;2022-07-09T00:51:47;10.50;;;4.30;;
10509;SDS011;5303;53.266;10.410;2022-07-09T00:54:12;13.67;;;4.23;;
10509;SDS011;5303;53.266;10.410;2022-07-09T00:56:38;10.37;;;3.83;;
10509;SDS011;5303;53.266;10.410;2022-07-09T00:59:04;10.33;;;4.33;;
10509;SDS011;5303;53.266;10.410;2022-07-09T01:01:34;10.57;;;4.27;;
10509;SDS011;5303;53.266;10.410;2022-07-09T01:04:00;10.97;;;4.23;;
10509;SDS011;5303;53.266;10.410;2022-07-09T01:06:26;10.97;;;4.17;;
10509;SDS011;5303;53.266;10.410;2022-07-09T01:08:51;5.53;;;3.67;;
10509;SDS011;5303;53.266;10.410;2022-07-09T01:11:16;9.97;;;4.03;;
10509;SDS011;5303;53.266;10.410;2022-07-09T01:13:42;14.43;;;4.00;;
10509;SDS011;5303;53.266;10.410;2022-07-09T01:16:14;7.40;;;3.77;;
10509;SDS011;5303;53.266;10.410;2022-07-09T01:18:39;9.30;;;4.00;;
10509;SDS011;5303;53.266;10.410;2022-07-09T01:21:07;10.60;;;4.10;;
10509;SDS011;5303;53.266;10.410;2022-07-09T01:23:33;10.13;;;4.30;;
10509;SDS011;5303;53.266;10.410;2022-07-09T01:25:58;8.57;;;3.70;;
10509;SDS011;5303;53.266;10.410;2022-07-09T01:28:23;10.47;;;4.53;;
10509;SDS011;5303;53.266;10.410;2022-07-09T01:30:49;9.13;;;4.13;;
10509;SDS011;5303;53.266;10.410;2022-07-09T01:33:14;12.87;;;4.73;;
10509;SDS011;5303;53.266;10.410;2022-07-09T01:35:39;10.13;;;4.50;;
10509;SDS011;5303;53.266;10.410;2022-07-09T01:38:04;8.83;;;3.90;;
10509;SDS011;5303;53.266;10.410;2022-07-09T01:40:30;7.87;;;3.63;;
10509;SDS011;5303;53.266;10.410;2022-07-09T01:42:55;8.37;;;3.70;;
10509;SDS011;5303;53.266;10.410;2022-07-09T01:45:20;10.33;;;3.80;;
10509;SDS011;5303;53.266;10.410;2022-07-09T01:47:46;10.27;;;4.33;;
10509;SDS011;5303;53.266;10.410;2022-07-09T01:50:11;11.97;;;5.20;;
10509;SDS011;5303;53.266;10.410;2022-07-09T01:52:37;10.23;;;4.60;;
10509;SDS011;5303;53.266;10.410;2022-07-09T01:55:02;11.67;;;4.17;;
10509;SDS011;5303;53.266;10.410;2022-07-09T01:57:28;10.43;;;4.03;;
10509;SDS011;5303;53.266;10.410;2022-07-09T01:59:53;13.57;;;4.03;;
10509;SDS011;5303;53.266;10.410;2022-07-09T02:02:19;8.63;;;3.90;;
10509;SDS011;5303;53.266;10.410;2022-07-09T02:04:45;11.90;;;4.53;;
10509;SDS011;5303;53.266;10.410;2022-07-09T02:07:11;8.03;;;4.37;;
10509;SDS011;5303;53.266;10.410;2022-07-09T02:09:37;10.53;;;4.37;;
10509;SDS011;5303;53.266;10.410;2022-07-09T02:12:03;16.70;;;4.83;;
10509;SDS011;5303;53.266;10.410;2022-07-09T02:14:29;10.70;;;4.57;;
10509;SDS011;5303;53.266;10.410;2022-07-09T02:16:54;9.10;;;4.07;;
10509;SDS011;5303;53.266;10.410;2022-07-09T02:19:20;11.40;;;4.37;;
10509;SDS011;5303;53.266;10.410;2022-07-09T02:21:45;9.37;;;4.87;;
10509;SDS011;5303;53.266;10.410;2022-07-09T02:24:10;8.37;;;4.10;;
10509;SDS011;5303;53.266;10.410;2022-07-09T02:26:35;8.80;;;3.90;;
10509;SDS011;5303;53.266;10.410;2022-07-09T02:29:01;9.73;;;4.37;;
10509;SDS011;5303;53.266;10.410;2022-07-09T02:31:27;9.00;;;4.40;;
10509;SDS011;5303;53.266;10.410;2022-07-09T02:33:52;9.70;;;4.07;;
10509;SDS011;5303;53.266;10.410;2022-07-09T02:36:18;8.57;;;4.43;;
10509;SDS011;5303;53.266;10.410;2022-07-09T02:38:43;8.03;;;4.00;;
10509;SDS011;5303;53.266;10.410;2022-07-09T02:41:09;10.80;;;4.57;;
10509;SDS011;5303;53.266;10.410;2022-07-09T02:43:34;10.63;;;4.47;;
10509;SDS011;5303;53.266;10.410;2022-07-09T02:45:59;10.43;;;4.67;;
10509;SDS011;5303;53.266;10.410;2022-07-09T02:48:25;8.23;;;4.20;;
10509;SDS011;5303;53.266;10.410;2022-07-09T02:50:51;13.33;;;4.60;;
10509;SDS011;5303;53.266;10.410;2022-07-09T02:53:17;7.87;;;3.77;;
10509;SDS011;5303;53.266;10.410;2022-07-09T02:55:43;10.97;;;4.13;;
10509;SDS011;5303;53.266;10.410;2022-07-09T02:58:09;14.03;;;4.13;;
10509;SDS011;5303;53.266;10.410;2022-07-09T03:00:35;9.83;;;3.80;;
10509;SDS011;5303;53.266;10.410;2022-07-09T03:03:01;10.50;;;4.27;;
10509;SDS011;5303;53.266;10.410;2022-07-09T03:05:26;9.90;;;3.97;;
10509;SDS011;5303;53.266;10.410;2022-07-09T03:07:51;13.73;;;4.13;;
10509;SDS011;5303;53.266;10.410;2022-07-09T03:10:17;7.03;;;3.97;;
10509;SDS011;5303;53.266;10.410;2022-07-09T03:12:42;9.00;;;4.20;;
10509;SDS011;5303;53.266;10.410;2022-07-09T03:15:07;13.07;;;4.60;;
10509;SDS011;5303;53.266;10.410;2022-07-09T03:17:33;9.40;;;3.77;;
10509;SDS011;5303;53.266;10.410;2022-07-09T03:19:59;10.27;;;3.77;;
10509;SDS011;5303;53.266;10.410;2022-07-09T03:22:25;13.33;;;4.27;;
10509;SDS011;5303;53.266;10.410;2022-07-09T03:24:50;8.93;;;3.80;;
10509;SDS011;5303;53.266;10.410;2022-07-09T03:27:16;7.33;;;4.10;;
10509;SDS011;5303;53.266;10.410;2022-07-09T03:29:41;10.53;;;4.27;;
10509;SDS011;5303;53.266;10.410;2022-07-09T03:32:07;8.40;;;3.50;;
10509;SDS011;5303;53.266;10.410;2022-07-09T03:34:32;6.37;;;3.40;;
10509;SDS011;5303;53.266;10.410;2022-07-09T03:36:58;7.87;;;3.93;;
10509;SDS011;5303;53.266;10.410;2022-07-09T03:39:24;7.97;;;4.43;;
10509;SDS011;5303;53.266;10.410;2022-07-09T03:41:49;6.10;;;3.73;;
10509;SDS011;5303;53.266;10.410;2022-07-09T03:44:15;6.87;;;3.73;;
10509;SDS011;5303;53.266;10.410;2022-07-09T03:46:40;7.70;;;4.27;;
10509;SDS011;5303;53.266;10.410;2022-07-09T03:49:05;7.47;;;3.70;;
10509;SDS011;5303;53.266;10.410;2022-07-09T03:51:31;8.80;;;3.80;;
10509;SDS011;5303;53.266;10.410;2022-07-09T03:53:56;9.13;;;4.17;;
10509;SDS011;5303;53.266;10.410;2022-07-09T03:56:21;7.37;;;4.20;;
10509;SDS011;5303;53.266;10.410;2022-07-09T03:58:47;9.40;;;4.17;;
10509;SDS011;5303;53.266;10.410;2022-07-09T04:01:12;10.30;;;4.40;;
10509;SDS011;5303;53.266;10.410;2022-07-09T04:03:37;13.23;;;4.40;;
10509;SDS011;5303;53.266;10.410;2022-07-09T04:06:03;9.03;;;4.20;;
10509;SDS011;5303;53.266;10.410;2022-07-09T04:08:28;9.23;;;4.03;;
10509;SDS011;5303;53.266;10.410;2022-07-09T04:10:54;7.27;;;3.77;;
10509;SDS011;5303;53.266;10.410;2022-07-09T04:13:19;11.20;;;4.30;;
10509;SDS011;5303;53.266;10.410;2022-07-09T04:15:44;9.73;;;4.30;;
10509;SDS011;5303;53.266;10.410;2022-07-09T04:18:10;8.97;;;4.40;;
10509;SDS011;5303;53.266;10.410;2022-07-09T04:20:36;10.13;;;4.40;;
10509;SDS011;5303;53.266;10.410;2022-07-09T04:23:01;9.87;;;4.23;;
10509;SDS011;5303;53.266;10.410;2022-07-09T04:25:26;9.20;;;3.73;;
10509;SDS011;5303;53.266;10.410;2022-07-09T04:27:52;7.80;;;3.97;;
10509;SDS011;5303;53.266;10.410;2022-07-09T04:30:17;6.67;;;3.70;;
10509;SDS011;5303;53.266;10.410;2022-07-09T04:32:42;7.97;;;3.60;;
10509;SDS011;5303;53.266;10.410;2022-07-09T04:35:08;12.50;;;4.20;;
10509;SDS011;5303;53.266;10.410;2022-07-09T04:37:33;7.90;;;4.03;;
10509;SDS011;5303;53.266;10.410;2022-07-09T04:39:58;7.00;;;3.87;;
10509;SDS011;5303;53.266;10.410;2022-07-09T04:42:24;5.67;;;3.43;;
10509;SDS011;5303;53.266;10.410;2022-07-09T04:44:49;7.67;;;3.17;;
10509;SDS011;5303;53.266;10.410;2022-07-09T04:47:15;5.97;;;3.43;;
10509;SDS011;5303;53.266;10.410;2022-07-09T04:49:40;4.30;;;3.20;;
10509;SDS011;5303;53.266;10.410;2022-07-09T04:52:05;9.57;;;3.03;;
10509;SDS011;5303;53.266;10.410;2022-07-09T04:54:31;9.43;;;4.10;;
10509;SDS011;5303;53.266;10.410;2022-07-09T04:56:56;7.57;;;3.80;;
10509;SDS011;5303;53.266;10.410;2022-07-09T04:59:21;7.83;;;3.30;;
10509;SDS011;5303;53.266;10.410;2022-07-09T05:01:48;6.33;;;3.93;;
10509;SDS011;5303;53.266;10.410;2022-07-09T05:04:15;5.00;;;2.93;;
10509;SDS011;5303;53.266;10.410;2022-07-09T05:06:40;5.87;;;3.00;;
10509;SDS011;5303;53.266;10.410;2022-07-09T05:09:06;6.60;;;3.70;;
10509;SDS011;5303;53.266;10.410;2022-07-09T05:11:31;8.37;;;3.57;;
10509;SDS011;5303;53.266;10.410;2022-07-09T05:13:57;10.87;;;4.27;;
10509;SDS011;5303;53.266;10.410;2022-07-09T05:16:23;7.00;;;3.27;;
10509;SDS011;5303;53.266;10.410;2022-07-09T05:18:48;9.77;;;3.33;;
10509;SDS011;5303;53.266;10.410;2022-07-09T05:21:14;7.07;;;3.43;;
10509;SDS011;5303;53.266;10.410;2022-07-09T05:23:39;7.83;;;3.80;;
10509;SDS011;5303;53.266;10.410;2022-07-09T05:26:05;6.00;;;3.43;;
10509;SDS011;5303;53.266;10.410;2022-07-09T05:28:30;5.03;;;3.03;;
10509;SDS011;5303;53.266;10.410;2022-07-09T05:30:55;6.80;;;3.37;;
10509;SDS011;5303;53.266;10.410;2022-07-09T05:33:21;5.93;;;2.93;;
10509;SDS011;5303;53.266;10.410;2022-07-09T05:35:46;6.57;;;3.20;;
10509;SDS011;5303;53.266;10.410;2022-07-09T05:38:11;8.77;;;3.17;;
10509;SDS011;5303;53.266;10.410;2022-07-09T05:40:37;6.20;;;3.90;;
10509;SDS011;5303;53.266;10.410;2022-07-09T05:43:02;7.13;;;3.60;;
10509;SDS011;5303;53.266;10.410;2022-07-09T05:45:27;3.90;;;2.93;;
10509;SDS011;5303;53.266;10.410;2022-07-09T05:47:53;5.30;;;2.93;;
10509;SDS011;5303;53.266;10.410;2022-07-09T05:50:18;8.97;;;3.53;;
10509;SDS011;5303;53.266;10.410;2022-07-09T05:52:43;7.10;;;2.73;;
10509;SDS011;5303;53.266;10.410;2022-07-09T05:55:10;5.53;;;3.07;;
10509;SDS011;5303;53.266;10.410;2022-07-09T05:57:36;6.53;;;3.33;;
10509;SDS011;5303;53.266;10.410;2022-07-09T06:00:01;5.60;;;3.20;;
10509;SDS011;5303;53.266;10.410;2022-07-09T06:02:28;4.97;;;3.17;;
10509;SDS011;5303;53.266;10.410;2022-07-09T06:04:54;6.33;;;3.00;;
10509;SDS011;5303;53.266;10.410;2022-07-09T06:07:19;8.47;;;2.70;;
10509;SDS011;5303;53.266;10.410;2022-07-09T06:09:44;3.30;;;2.50;;
10509;SDS011;5303;53.266;10.410;2022-07-09T06:12:10;4.80;;;3.07;;
10509;SDS011;5303;53.266;10.410;2022-07-09T06:14:35;4.90;;;2.80;;
10509;SDS011;5303;53.266;10.410;2022-07-09T06:17:01;9.40;;;3.30;;
10509;SDS011;5303;53.266;10.410;2022-07-09T06:19:31;9.23;;;3.37;;
10509;SDS011;5303;53.266;10.410;2022-07-09T06:22:00;8.70;;;3.10;;
10509;SDS011;5303;53.266;10.410;2022-07-09T06:24:26;5.57;;;2.70;;
10509;SDS011;5303;53.266;10.410;2022-07-09T06:26:51;5.23;;;2.50;;
10509;SDS011;5303;53.266;10.410;2022-07-09T06:29:17;6.93;;;3.47;;
10509;SDS011;5303;53.266;10.410;2022-07-09T06:31:42;7.33;;;3.23;;
10509;SDS011;5303;53.266;10.410;2022-07-09T06:34:08;5.93;;;2.97;;
10509;SDS011;5303;53.266;10.410;2022-07-09T06:36:33;8.27;;;3.20;;
10509;SDS011;5303;53.266;10.410;2022-07-09T06:38:58;3.87;;;2.90;;
10509;SDS011;5303;53.266;10.410;2022-07-09T06:41:42;4.63;;;2.97;;
10509;SDS011;5303;53.266;10.410;2022-07-09T06:44:07;8.63;;;3.30;;
10509;SDS011;5303;53.266;10.410;2022-07-09T06:46:33;4.50;;;2.57;;
10509;SDS011;5303;53.266;10.410;2022-07-09T06:48:58;5.23;;;3.20;;
10509;SDS011;5303;53.266;10.410;2022-07-09T06:51:23;5.07;;;2.90;;
10509;SDS011;5303;53.266;10.410;2022-07-09T06:53:48;4.57;;;3.10;;
10509;SDS011;5303;53.266;10.410;2022-07-09T06:56:14;5.27;;;3.20;;
10509;SDS011;5303;53.266;10.410;2022-07-09T06:58:39;5.53;;;3.10;;
10509;SDS011;5303;53.266;10.410;2022-07-09T07:01:04;6.57;;;2.97;;
10509;SDS011;5303;53.266;10.410;2022-07-09T07:03:29;3.80;;;3.13;;
10509;SDS011;5303;53.266;10.410;2022-07-09T07:05:55;9.17;;;4.20;;
10509;SDS011;5303;53.266;10.410;2022-07-09T07:08:20;7.13;;;4.20;;
10509;SDS011;5303;53.266;10.410;2022-07-09T07:10:45;7.43;;;4.00;;
10509;SDS011;5303;53.266;10.410;2022-07-09T07:13:11;9.23;;;4.20;;
10509;SDS011;5303;53.266;10.410;2022-07-09T07:15:36;7.53;;;3.90;;
10509;SDS011;5303;53.266;10.410;2022-07-09T07:18:02;7.13;;;4.63;;
10509;SDS011;5303;53.266;10.410;2022-07-09T07:20:27;6.00;;;3.70;;
10509;SDS011;5303;53.266;10.410;2022-07-09T07:22:52;4.63;;;4.13;;
10509;SDS011;5303;53.266;10.410;2022-07-09T07:25:18;4.00;;;3.60;;
10509;SDS011;5303;53.266;10.410;2022-07-09T07:27:43;6.17;;;3.73;;
10509;SDS011;5303;53.266;10.410;2022-07-09T07:30:08;5.47;;;3.70;;
10509;SDS011;5303;53.266;10.410;2022-07-09T07:32:34;6.67;;;3.87;;
10509;SDS011;5303;53.266;10.410;2022-07-09T07:34:59;5.13;;;3.70;;
10509;SDS011;5303;53.266;10.410;2022-07-09T07:37:25;5.83;;;4.27;;
10509;SDS011;5303;53.266;10.410;2022-07-09T07:39:50;9.30;;;4.53;;
10509;SDS011;5303;53.266;10.410;2022-07-09T07:42:15;6.80;;;3.70;;
10509;SDS011;5303;53.266;10.410;2022-07-09T07:44:41;5.67;;;4.10;;
10509;SDS011;5303;53.266;10.410;2022-07-09T07:47:07;6.47;;;4.50;;
10509;SDS011;5303;53.266;10.410;2022-07-09T07:49:32;6.67;;;3.73;;
10509;SDS011;5303;53.266;10.410;2022-07-09T07:51:57;8.27;;;4.10;;
10509;SDS011;5303;53.266;10.410;2022-07-09T07:54:23;5.80;;;4.13;;
10509;SDS011;5303;53.266;10.410;2022-07-09T07:56:48;5.40;;;3.60;;
10509;SDS011;5303;53.266;10.410;2022-07-09T07:59:15;7.17;;;3.47;;
10509;SDS011;5303;53.266;10.410;2022-07-09T08:01:41;4.33;;;3.50;;
10509;SDS011;5303;53.266;10.410;2022-07-09T08:04:06;6.70;;;4.07;;
10509;SDS011;5303;53.266;10.410;2022-07-09T08:06:31;5.70;;;3.53;;
10509;SDS011;5303;53.266;10.410;2022-07-09T08:08:57;4.07;;;2.77;;
10509;SDS011;5303;53.266;10.410;2022-07-09T08:11:22;6.30;;;3.07;;
10509;SDS011;5303;53.266;10.410;2022-07-09T08:13:47;4.83;;;2.73;;
10509;SDS011;5303;53.266;10.410;2022-07-09T08:16:12;6.63;;;3.23;;
10509;SDS011;5303;53.266;10.410;2022-07-09T08:18:38;5.67;;;2.93;;
10509;SDS011;5303;53.266;10.410;2022-07-09T08:21:03;5.10;;;3.17;;
10509;SDS011;5303;53.266;10.410;2022-07-09T08:23:29;4.97;;;2.97;;
10509;SDS011;5303;53.266;10.410;2022-07-09T08:25:54;3.83;;;2.93;;
10509;SDS011;5303;53.266;10.410;2022-07-09T08:28:19;5.40;;;3.07;;
10509;SDS011;5303;53.266;10.410;2022-07-09T08:30:44;4.40;;;2.70;;
10509;SDS011;5303;53.266;10.410;2022-07-09T08:33:10;3.00;;;2.70;;
10509;SDS011;5303;53.266;10.410;2022-07-09T08:35:35;3.67;;;2.47;;
10509;SDS011;5303;53.266;10.410;2022-07-09T08:38:00;3.53;;;2.70;;
10509;SDS011;5303;53.266;10.410;2022-07-09T08:40:26;4.33;;;2.70;;
10509;SDS011;5303;53.266;10.410;2022-07-09T08:42:52;5.53;;;2.80;;
10509;SDS011;5303;53.266;10.410;2022-07-09T08:45:18;5.70;;;2.80;;
10509;SDS011;5303;53.266;10.410;2022-07-09T08:47:46;5.47;;;2.60;;
10509;SDS011;5303;53.266;10.410;2022-07-09T08:50:12;4.60;;;2.87;;
10509;SDS011;5303;53.266;10.410;2022-07-09T08:52:39;4.80;;;2.70;;
10509;SDS011;5303;53.266;10.410;2022-07-09T08:55:07;3.80;;;2.90;;
10509;SDS011;5303;53.266;10.410;2022-07-09T08:57:33;5.20;;;2.80;;
10509;SDS011;5303;53.266;10.410;2022-07-09T09:00:03;3.93;;;2.63;;
10509;SDS011;5303;53.266;10.410;2022-07-09T09:02:38;4.73;;;3.07;;
10509;SDS011;5303;53.266;10.410;2022-07-09T09:05:12;4.63;;;2.90;;
10509;SDS011;5303;53.266;10.410;2022-07-09T09:07:38;4.47;;;2.97;;
10509;SDS011;5303;53.266;10.410;2022-07-09T09:10:04;3.87;;;3.00;;
10509;SDS011;5303;53.266;10.410;2022-07-09T09:12:30;3.20;;;2.90;;
10509;SDS011;5303;53.266;10.410;2022-07-09T09:14:55;3.93;;;3.10;;
10509;SDS011;5303;53.266;10.410;2022-07-09T09:17:21;5.30;;;2.53;;
10509;SDS011;5303;53.266;10.410;2022-07-09T09:19:46;3.57;;;2.90;;
10509;SDS011;5303;53.266;10.410;2022-07-09T09:22:15;4.70;;;3.03;;
10509;SDS011;5303;53.266;10.410;2022-07-09T09:24:41;4.00;;;3.00;;
10509;SDS011;5303;53.266;10.410;2022-07-09T09:27:07;2.63;;;2.20;;
10509;SDS011;5303;53.266;10.410;2022-07-09T09:29:33;2.83;;;2.50;;
10509;SDS011;5303;53.266;10.410;2022-07-09T09:32:09;3.73;;;2.83;;
10509;SDS011;5303;53.266;10.410;2022-07-09T09:34:35;4.13;;;2.63;;
10509;SDS011;5303;53.266;10.410;2022-07-09T09:37:01;3.20;;;2.40;;
10509;SDS011;5303;53.266;10.410;2022-07-09T09:39:28;5.37;;;2.93;;
10509;SDS011;5303;53.266;10.410;2022-07-09T09:41:57;3.20;;;2.40;;
10509;SDS011;5303;53.266;10.410;2022-07-09T09:44:25;3.10;;;2.47;;
10509;SDS011;5303;53.266;10.410;2022-07-09T09:46:53;4.47;;;2.60;;
10509;SDS011;5303;53.266;10.410;2022-07-09T09:49:19;5.10;;;2.33;;
10509;SDS011;5303;53.266;10.410;2022-07-09T09:51:51;3.53;;;2.37;;
10509;SDS011;5303;53.266;10.410;2022-07-09T09:54:25;4.90;;;2.50;;
10509;SDS011;5303;53.266;10.410;2022-07-09T09:56:50;3.13;;;1.93;;
10509;SDS011;5303;53.266;10.410;2022-07-09T09:59:17;3.00;;;2.40;;
10509;SDS011;5303;53.266;10.410;2022-07-09T10:01:45;2.90;;;2.37;;
10509;SDS011;5303;53.266;10.410;2022-07-09T10:04:12;4.30;;;2.40;;
10509;SDS011;5303;53.266;10.410;2022-07-09T10:06:39;3.10;;;2.23;;
10509;SDS011;5303;53.266;10.410;2022-07-09T10:09:06;2.43;;;1.83;;
10509;SDS011;5303;53.266;10.410;2022-07-09T10:11:43;4.00;;;1.97;;
10509;SDS011;5303;53.266;10.410;2022-07-09T10:16:53;3.33;;;1.57;;
10509;SDS011;5303;53.266;10.410;2022-07-09T10:19:28;3.00;;;1.93;;
10509;SDS011;5303;53.266;10.410;2022-07-09T10:21:56;3.47;;;2.20;;
10509;SDS011;5303;53.266;10.410;2022-07-09T10:24:23;3.37;;;1.90;;
10509;SDS011;5303;53.266;10.410;2022-07-09T10:27:01;3.73;;;2.00;;
10509;SDS011;5303;53.266;10.410;2022-07-09T10:29:28;4.63;;;1.90;;
10509;SDS011;5303;53.266;10.410;2022-07-09T10:31:56;4.03;;;1.83;;
10509;SDS011;5303;53.266;10.410;2022-07-09T10:36:58;2.47;;;1.70;;
10509;SDS011;5303;53.266;10.410;2022-07-09T10:39:27;3.30;;;1.50;;
10509;SDS011;5303;53.266;10.410;2022-07-09T10:44:33;2.53;;;1.73;;
10509;SDS011;5303;53.266;10.410;2022-07-09T10:46:59;2.47;;;1.70;;
10509;SDS011;5303;53.266;10.410;2022-07-09T10:49:25;2.53;;;1.70;;
10509;SDS011;5303;53.266;10.410;2022-07-09T10:51:54;3.47;;;2.00;;
10509;SDS011;5303;53.266;10.410;2022-07-09T10:54:21;2.17;;;1.70;;
10509;SDS011;5303;53.266;10.410;2022-07-09T10:56:46;1.97;;;1.60;;
10509;SDS011;5303;53.266;10.410;2022-07-09T10:59:15;4.20;;;1.97;;
10509;SDS011;5303;53.266;10.410;2022-07-09T11:01:42;2.33;;;1.50;;
10509;SDS011;5303;53.266;10.410;2022-07-09T11:04:07;3.77;;;1.80;;
10509;SDS011;5303;53.266;10.410;2022-07-09T11:06:33;5.33;;;1.97;;
10509;SDS011;5303;53.266;10.410;2022-07-09T11:09:16;2.87;;;1.70;;
10509;SDS011;5303;53.266;10.410;2022-07-09T11:11:42;4.40;;;1.80;;
10509;SDS011;5303;53.266;10.410;2022-07-09T11:14:11;1.77;;;1.67;;
10509;SDS011;5303;53.266;10.410;2022-07-09T11:16:37;3.57;;;1.57;;
10509;SDS011;5303;53.266;10.410;2022-07-09T11:19:12;2.83;;;1.60;;
10509;SDS011;5303;53.266;10.410;2022-07-09T11:21:41;1.93;;;1.30;;
10509;SDS011;5303;53.266;10.410;2022-07-09T11:24:13;6.40;;;2.07;;
10509;SDS011;5303;53.266;10.410;2022-07-09T11:26:39;2.50;;;1.40;;
10509;SDS011;5303;53.266;10.410;2022-07-09T11:29:06;3.27;;;1.57;;
10509;SDS011;5303;53.266;10.410;2022-07-09T11:31:33;3.73;;;1.50;;
10509;SDS011;5303;53.266;10.410;2022-07-09T11:33:59;2.50;;;1.43;;
10509;SDS011;5303;53.266;10.410;2022-07-09T11:36:40;3.43;;;1.20;;
10509;SDS011;5303;53.266;10.410;2022-07-09T11:39:20;2.07;;;1.47;;
10509;SDS011;5303;53.266;10.410;2022-07-09T11:41:49;3.83;;;1.67;;
10509;SDS011;5303;53.266;10.410;2022-07-09T11:44:22;4.13;;;1.70;;
10509;SDS011;5303;53.266;10.410;2022-07-09T11:47:02;2.73;;;1.50;;
10509;SDS011;5303;53.266;10.410;2022-07-09T11:49:31;2.07;;;1.40;;
10509;SDS011;5303;53.266;10.410;2022-07-09T11:52:01;1.73;;;1.30;;
10509;SDS011;5303;53.266;10.410;2022-07-09T11:54:27;2.60;;;1.30;;
10509;SDS011;5303;53.266;10.410;2022-07-09T11:56:56;1.37;;;1.27;;
10509;SDS011;5303;53.266;10.410;2022-07-09T11:59:24;1.60;;;1.40;;
10509;SDS011;5303;53.266;10.410;2022-07-09T12:01:51;3.17;;;1.57;;
10509;SDS011;5303;53.266;10.410;2022-07-09T12:04:19;5.17;;;2.00;;
10509;SDS011;5303;53.266;10.410;2022-07-09T12:06:48;4.73;;;2.33;;
10509;SDS011;5303;53.266;10.410;2022-07-09T12:09:15;2.23;;;1.77;;
10509;SDS011;5303;53.266;10.410;2022-07-09T12:11:41;2.50;;;1.37;;
10509;SDS011;5303;53.266;10.410;2022-07-09T12:14:06;2.30;;;1.50;;
10509;SDS011;5303;53.266;10.410;2022-07-09T12:16:32;1.83;;;1.20;;
10509;SDS011;5303;53.266;10.410;2022-07-09T12:18:57;2.43;;;1.37;;
10509;SDS011;5303;53.266;10.410;2022-07-09T12:21:23;1.83;;;1.20;;
10509;SDS011;5303;53.266;10.410;2022-07-09T12:23:48;2.50;;;1.23;;
10509;SDS011;5303;53.266;10.410;2022-07-09T12:26:13;2.20;;;1.30;;
10509;SDS011;5303;53.266;10.410;2022-07-09T12:28:39;2.77;;;1.50;;
10509;SDS011;5303;53.266;10.410;2022-07-09T12:31:04;3.03;;;1.77;;
10509;SDS011;5303;53.266;10.410;2022-07-09T12:33:30;2.37;;;1.50;;
10509;SDS011;5303;53.266;10.410;2022-07-09T12:35:55;3.00;;;2.03;;
10509;SDS011;5303;53.266;10.410;2022-07-09T12:38:20;2.27;;;1.60;;
10509;SDS011;5303;53.266;10.410;2022-07-09T12:40:45;1.73;;;1.60;;
10509;SDS011;5303;53.266;10.410;2022-07-09T12:43:11;2.87;;;1.90;;
10509;SDS011;5303;53.266;10.410;2022-07-09T12:45:36;2.63;;;1.60;;
10509;SDS011;5303;53.266;10.410;2022-07-09T12:48:01;3.63;;;2.43;;
10509;SDS011;5303;53.266;10.410;2022-07-09T12:50:27;4.33;;;1.90;;
10509;SDS011;5303;53.266;10.410;2022-07-09T12:52:52;2.03;;;1.50;;
10509;SDS011;5303;53.266;10.410;2022-07-09T12:55:17;4.40;;;2.20;;
10509;SDS011;5303;53.266;10.410;2022-07-09T12:57:43;3.60;;;2.10;;
10509;SDS011;5303;53.266;10.410;2022-07-09T13:00:09;3.23;;;2.07;;
10509;SDS011;5303;53.266;10.410;2022-07-09T13:02:34;4.27;;;2.00;;
10509;SDS011;5303;53.266;10.410;2022-07-09T13:05:00;2.30;;;2.10;;
10509;SDS011;5303;53.266;10.410;2022-07-09T13:07:25;2.80;;;1.73;;
10509;SDS011;5303;53.266;10.410;2022-07-09T13:09:50;3.93;;;1.80;;
10509;SDS011;5303;53.266;10.410;2022-07-09T13:12:17;1.50;;;1.30;;
10509;SDS011;5303;53.266;10.410;2022-07-09T13:14:42;1.50;;;1.40;;
10509;SDS011;5303;53.266;10.410;2022-07-09T13:17:07;2.53;;;1.50;;
10509;SDS011;5303;53.266;10.410;2022-07-09T13:19:33;1.73;;;1.33;;
10509;SDS011;5303;53.266;10.410;2022-07-09T13:21:58;2.93;;;1.67;;
10509;SDS011;5303;53.266;10.410;2022-07-09T13:24:23;4.53;;;1.70;;
10509;SDS011;5303;53.266;10.410;2022-07-09T13:26:49;2.63;;;1.30;;
10509;SDS011;5303;53.266;10.410;2022-07-09T13:29:14;3.97;;;1.67;;
10509;SDS011;5303;53.266;10.410;2022-07-09T13:31:39;4.40;;;1.70;;
10509;SDS011;5303;53.266;10.410;2022-07-09T13:34:05;3.57;;;1.60;;
10509;SDS011;5303;53.266;10.410;2022-07-09T13:36:30;3.47;;;1.80;;
10509;SDS011;5303;53.266;10.410;2022-07-09T13:38:55;1.97;;;1.40;;
10509;SDS011;5303;53.266;10.410;2022-07-09T13:41:21;3.33;;;1.60;;
10509;SDS011;5303;53.266;10.410;2022-07-09T13:43:46;2.93;;;1.80;;
10509;SDS011;5303;53.266;10.410;2022-07-09T13:46:12;3.17;;;1.63;;
10509;SDS011;5303;53.266;10.410;2022-07-09T13:48:37;2.53;;;1.67;;
10509;SDS011;5303;53.266;10.410;2022-07-09T13:51:03;4.00;;;1.67;;
10509;SDS011;5303;53.266;10.410;2022-07-09T13:53:29;3.73;;;1.70;;
10509;SDS011;5303;53.266;10.410;2022-07-09T13:55:56;4.57;;;1.63;;
10509;SDS011;5303;53.266;10.410;2022-07-09T13:58:22;3.33;;;1.40;;
10509;SDS011;5303;53.266;10.410;2022-07-09T14:00:47;3.50;;;1.60;;
10509;SDS011;5303;53.266;10.410;2022-07-09T14:03:12;3.67;;;1.43;;
10509;SDS011;5303;53.266;10.410;2022-07-09T14:05:38;6.50;;;1.67;;
10509;SDS011;5303;53.266;10.410;2022-07-09T14:08:03;3.63;;;1.70;;
10509;SDS011;5303;53.266;10.410;2022-07-09T14:10:30;3.83;;;1.60;;
10509;SDS011;5303;53.266;10.410;2022-07-09T14:12:56;3.53;;;1.80;;
10509;SDS011;5303;53.266;10.410;2022-07-09T14:15:21;5.13;;;1.60;;
10509;SDS011;5303;53.266;10.410;2022-07-09T14:17:47;3.83;;;1.40;;
10509;SDS011;5303;53.266;10.410;2022-07-09T14:20:13;4.73;;;1.20;;
10509;SDS011;5303;53.266;10.410;2022-07-09T14:22:39;6.73;;;2.93;;
10509;SDS011;5303;53.266;10.410;2022-07-09T14:25:04;5.03;;;3.10;;
10509;SDS011;5303;53.266;10.410;2022-07-09T14:27:30;7.33;;;3.77;;
10509;SDS011;5303;53.266;10.410;2022-07-09T14:29:55;7.93;;;2.80;;
10509;SDS011;5303;53.266;10.410;2022-07-09T14:32:21;4.97;;;1.60;;
10509;SDS011;5303;53.266;10.410;2022-07-09T14:34:46;3.33;;;1.60;;
10509;SDS011;5303;53.266;10.410;2022-07-09T14:37:11;3.60;;;1.57;;
10509;SDS011;5303;53.266;10.410;2022-07-09T14:39:37;2.77;;;1.70;;
10509;SDS011;5303;53.266;10.410;2022-07-09T14:42:02;4.27;;;1.80;;
10509;SDS011;5303;53.266;10.410;2022-07-09T14:44:28;3.77;;;1.50;;
10509;SDS011;5303;53.266;10.410;2022-07-09T14:46:55;2.80;;;1.40;;